Flight Track Log - Related Links

Times and Time Zones

All times are in EDT time to prevent confusion due to time zone crossing. See the ELJ309 flight status page for this flight to view local times or setup timezone preferences in your user account.

Time Position Orientation Groundspeed Altitude Reporting Facility
EDT Latitude Longitude Course Direction KTS MPH feet Rate Location/Type
Fri 11:51:09 AM 41.2386 -80.6439 122° Southeast 195 224 3,000  Level Cleveland Center
Fri 11:52:09 AM 41.2033 -80.5694 122° Southeast 246 283 6,800 3,500 Climbing Cleveland Center
Fri 11:53:09 AM 41.1617 -80.4894 125° Southeast 267 307 10,000 3,050 Climbing Cleveland Center
Fri 11:54:09 AM 41.1178 -80.3958 122° Southeast 300 345 12,900 3,200 Climbing Cleveland Center
Fri 11:55:09 AM 41.0653 -80.2883 123° Southeast 328 377 16,400 2,750 Climbing Cleveland Center
Fri 11:56:09 AM 41.0086 -80.1758 124° Southeast 352 405 18,400 2,250 Climbing Cleveland Center
Fri 11:57:09 AM 40.9456 -80.0553 125° Southeast 377 434 20,900 2,200 Climbing Cleveland Center
Fri 11:58:09 AM 40.8825 -79.9267 123° Southeast 399 459 22,800 1,800 Climbing Cleveland Center
Fri 11:59:09 AM 40.8150 -79.7958 124° Southeast 423 487 24,500 1,100 Climbing Cleveland Center
Fri 12:00:09 PM 40.7344 -79.6433 125° Southeast 443 510 25,000 250 Climbing Cleveland Center
Fri 12:01:09 PM 40.6603 -79.4936 123° Southeast 464 534 25,000  Level Cleveland Center
Fri 12:02:09 PM 40.5881 -79.3528 124° Southeast 469 540 25,000  Level Cleveland Center
Fri 12:03:09 PM 40.5114 -79.2122 126° Southeast 469 540 25,000  Level Cleveland Center
Fri 12:04:09 PM 40.4367 -79.0692 124° Southeast 469 540 25,000  Level Cleveland Center
Fri 12:05:09 PM 40.3636 -78.9264 124° Southeast 474 545 25,000  Level Cleveland Center
Fri 12:06:09 PM 40.3175 -78.7642 110° East 466 536 25,000  Level Cleveland Center
Fri 12:07:09 PM 40.3144 -78.5900 91° East 459 528 25,000  Level Cleveland Center
Fri 12:08:09 PM 40.3156 -78.4183 89° East 464 534 25,000  Level Cleveland Center
Fri 12:09:09 PM 40.3119 -78.2386 91° East 470 541 25,000  Level Cleveland Center
Fri 12:11:30 PM 40.3056 -77.8508 91° East 492 566 25,000  Level New York Center
Fri 12:12:27 PM 40.2867 -77.6744 98° East 487 560 25,000  Level New York Center
Fri 12:13:28 PM 40.2697 -77.5014 97° East 487 560 25,000 -492 Level New York Center
Fri 12:14:29 PM 40.2544 -77.3258 96° East 487 560 24,000 -1,833 Descending New York Center
Fri 12:16:28 PM 40.2158 -77.0014 99° East 461 531 19,500 -2,067 Descending New York Center
Fri 12:17:29 PM 40.2028 -76.8533 97° East 426 490 17,800 -1,820 Descending New York Center
Fri 12:18:30 PM 40.1872 -76.7053 98° East 414 476 15,800 -2,132 Descending New York Center
Fri 12:19:30 PM 40.1706 -76.5408 98° East 414 476 13,500 -2,085 Descending New York Center
Fri 12:20:28 PM 40.1564 -76.3983 97° East 403 464 11,700 -1,424 Descending New York Center
Fri 12:21:28 PM 40.1417 -76.2694 98° East 390 449 10,700 -1,041 Descending New York Center
Fri 12:22:29 PM 40.1297 -76.1653 98° East 340 391 9,600 -1,091 Descending New York Center
Fri 12:23:29 PM 40.1164 -76.0503 99° East 298 343 8,500 -1,261 Descending New York Center
Fri 12:24:28 PM 40.1044 -75.9436 98° East 293 337 7,100 -1,250 Descending New York Center
Fri 12:25:29 PM 40.0892 -75.8608 104° East 281 323 6,000 -550 Descending New York Center
Fri 12:26:28 PM 40.0261 -75.8264 157° South 231 266 6,000 -353 Level New York Center
Fri 12:27:28 PM 39.9542 -75.7969 163° South 242 278 5,300 -496 Descending New York Center
Fri 12:28:29 PM 39.8869 -75.7650 160° South 256 295 5,000 -1,082 Descending New York Center
Fri 12:29:30 PM 39.8236 -75.7336 159° South 256 295 3,100 -992 Descending New York Center
Fri 12:30:30 PM 39.7975 -75.6614 115° Southeast 223 257 3,000 -51 Descending New York Center
Fri 12:31:28 PM 39.7753 -75.5897 112° Southeast 212 244 3,000 -757 Level New York Center
Fri 12:32:13 PM 39.7333 -75.5500 144° Southeast 210 242 1,700 -848 Descending Philadelphia TRACON
Fri 12:33:07 PM 39.6833 -75.5333 166° South 159 183 1,600 -100 Descending Philadelphia TRACON
Fri 12:34:13 PM 39.6500 -75.5500 201° Southwest 162 186 1,500 -381 Descending Philadelphia TRACON
Fri 12:35:13 PM 39.6333 -75.5833 237° Southwest 113 130 800 -700 Descending Philadelphia TRACON
Fri 12:42:00 PM 39.6667 -75.6000 163° South  Level FlightAware Approximate
Fri 12:49:00 PM 39.6787 -75.6066 163° South  Level Estimated
Fri 12:50:00 PM 39.6787 -75.6066 163° South  Level Estimated

Login

Don't have an account? Register now (free) for customized features, flight alerts, and more!